Time;durP1;ratioP1;P1;durP2;ratioP2;P2;SDS_P1;SDS_P2;PMS_P1;PMS_P2;Temp;Humidity;BMP_temperature;BMP_pressure;BME280_temperature;BME280_humidity;BME280_pressure;Samples;Min_cycle;Max_cycle;Signal;HPM_P1;HPM_P2
2021/12/14 00:01:18;;;;;;;;;;;;;;;2.25;87.21;100997.86;1681506;85;20164;-64
2021/12/14 00:03:49;;;;;;;;;;;;;;;2.23;87.17;100995.29;1681624;85;20226;-63
2021/12/14 00:06:18;;;;;;;;;;;;;;;2.22;87.20;101001.69;1681451;85;20329;-64
2021/12/14 00:08:51;;;;;;;;;;;;;;;2.23;87.23;101000.20;1681626;85;20218;-64
2021/12/14 00:11:49;;;;;;;;;;;;;;;2.26;87.19;101002.28;1681947;85;20497;-64
2021/12/14 00:15:01;;;;;;;;;;;;;;;2.25;87.24;101005.48;1664795;85;20250;-68
2021/12/14 00:16:49;;;;;;;;;;;;;;;2.21;87.15;101006.23;1678721;85;20280;-63
2021/12/14 00:19:18;;;;;;;;;;;;;;;2.21;87.25;101016.19;1680620;85;20222;-63
2021/12/14 00:21:51;;;;;;;;;;;;;;;2.21;87.38;101012.99;1681528;85;20270;-62
2021/12/14 00:24:19;;;;;;;;;;;;;;;2.22;87.38;101013.36;1662443;85;20183;-62
2021/12/14 00:26:54;;;;;;;;;;;;;;;2.21;87.25;101012.99;1681567;85;20231;-62
2021/12/14 00:29:25;;;;;;;;;;;;;;;2.19;87.22;101009.56;1681569;85;20242;-63
2021/12/14 00:31:55;;;;;;;;;;;;;;;2.19;87.21;101011.41;1681469;85;20174;-63
2021/12/14 00:34:36;;;;;;;;;;;;;;;2.21;87.27;101014.34;1681448;85;20162;-62
2021/12/14 00:36:55;;;;;;;;;;;;;;;2.23;87.25;101011.02;1680468;85;20155;-63
2021/12/14 00:39:23;;;;;;;;;;;;;;;2.19;87.20;101012.75;1681674;85;20158;-64
2021/12/14 00:41:52;;;;;;;;;;;;;;;2.19;87.33;101005.50;1681859;85;20378;-64
2021/12/14 00:44:21;;;;;;;;;;;;;;;2.19;87.37;101012.27;1681714;85;20557;-63
2021/12/14 00:46:50;;;;;;;;;;;;;;;2.20;87.33;101005.87;1681657;85;20147;-63
2021/12/14 00:49:18;;;;;;;;;;;;;;;2.21;87.28;101006.73;1681640;85;20202;-63
2021/12/14 00:51:47;;;;;;;;;;;;;;;2.19;87.08;101009.56;1681606;85;20213;-63
2021/12/14 00:54:16;;;;;;;;;;;;;;;2.18;87.02;101008.34;1681579;85;20254;-62
2021/12/14 00:56:47;;;;;;;;;;;;;;;2.19;87.13;100999.23;1681626;85;20226;-62
2021/12/14 00:59:18;;;;;;;;;;;;;;;2.19;87.02;101006.00;1681506;85;20282;-63
2021/12/14 01:01:54;;;;;;;;;;;;;;;2.18;87.14;101004.28;1681583;85;20183;-63
2021/12/14 01:04:26;;;;;;;;;;;;;;;2.20;87.11;101007.72;1681582;85;20211;-63
2021/12/14 01:06:54;;;;;;;;;;;;;;;2.19;87.09;101003.30;1681596;85;20187;-63
2021/12/14 01:09:27;;;;;;;;;;;;;;;2.20;87.10;101003.66;1681729;85;20167;-62
2021/12/14 01:12:02;;;;;;;;;;;;;;;2.19;87.07;101005.50;1681824;85;20485;-63
2021/12/14 01:14:45;;;;;;;;;;;;;;;2.20;87.08;101000.95;1681812;85;20159;-62
2021/12/14 01:20:07;;;;;;;;;;;;;;;2.20;87.18;101011.77;1681894;85;20183;-63
2021/12/14 01:22:48;;;;;;;;;;;;;;;2.22;87.25;101011.14;1681714;85;20555;-63
2021/12/14 01:25:18;;;;;;;;;;;;;;;2.22;87.26;101019.26;1680964;85;20175;-66
2021/12/14 01:27:53;;;;;;;;;;;;;;;2.26;87.34;101018.50;1681648;85;20159;-62
2021/12/14 01:30:36;;;;;;;;;;;;;;;2.25;87.21;101015.44;1681670;85;20250;-62
2021/12/14 01:33:07;;;;;;;;;;;;;;;2.24;87.20;101017.28;1661860;85;20278;-62
2021/12/14 01:35:37;;;;;;;;;;;;;;;2.25;87.22;101027.60;1681606;85;20227;-62
2021/12/14 01:41:00;;;;;;;;;;;;;;;2.28;87.10;101019.23;1681652;85;20163;-62
2021/12/14 01:43:43;;;;;;;;;;;;;;;2.25;87.04;101024.91;1681600;85;20198;-63
2021/12/14 01:46:22;;;;;;;;;;;;;;;2.25;87.15;101024.41;1681113;85;20182;-63
2021/12/14 01:48:53;;;;;;;;;;;;;;;2.26;87.16;101026.61;1681436;85;20250;-62
2021/12/14 01:51:43;;;;;;;;;;;;;;;2.23;87.10;101027.73;1631980;85;20503;-63
2021/12/14 01:54:22;;;;;;;;;;;;;;;2.20;87.12;101022.09;1681640;85;20175;-64
2021/12/14 01:56:50;;;;;;;;;;;;;;;2.15;87.09;101024.32;1681588;85;20557;-62
2021/12/14 01:59:23;;;;;;;;;;;;;;;2.16;87.18;101021.13;1685031;85;20163;-63
2021/12/14 02:04:41;;;;;;;;;;;;;;;2.13;87.36;101024.08;1686464;85;20170;-62
2021/12/14 02:07:09;;;;;;;;;;;;;;;2.14;87.47;101021.74;1686486;85;20290;-63
2021/12/14 02:09:38;;;;;;;;;;;;;;;2.13;87.40;101025.44;1665229;85;20158;-63
2021/12/14 02:12:16;;;;;;;;;;;;;;;2.10;87.33;101023.84;1664844;85;20205;-63
2021/12/14 02:14:46;;;;;;;;;;;;;;;2.08;87.33;101023.11;1686635;85;20227;-62
2021/12/14 02:17:34;;;;;;;;;;;;;;;2.10;87.44;101012.17;1686366;85;20222;-65
2021/12/14 02:20:25;;;;;;;;;;;;;;;2.14;87.44;101016.34;1686544;85;20179;-64
2021/12/14 02:23:11;;;;;;;;;;;;;;;2.11;87.34;101016.10;1686411;85;20206;-63
2021/12/14 02:25:39;;;;;;;;;;;;;;;2.09;87.55;101014.02;1686608;85;20555;-64
2021/12/14 02:28:11;;;;;;;;;;;;;;;2.12;87.73;101016.47;1686417;85;20206;-69
2021/12/14 02:30:41;;;;;;;;;;;;;;;2.11;87.57;101014.75;1686484;85;20174;-65
2021/12/14 02:33:13;;;;;;;;;;;;;;;2.10;87.65;101017.58;1686420;85;20187;-63
2021/12/14 02:35:41;;;;;;;;;;;;;;;2.10;87.75;101020.28;1664760;85;20166;-63
2021/12/14 02:38:11;;;;;;;;;;;;;;;2.09;87.77;101010.46;1686439;85;20179;-64
2021/12/14 02:40:54;;;;;;;;;;;;;;;2.13;87.79;101014.62;1686551;85;20532;-63
2021/12/14 02:43:35;;;;;;;;;;;;;;;2.10;87.58;101009.47;1686454;85;20206;-63
2021/12/14 02:46:13;;;;;;;;;;;;;;;2.10;87.65;101017.58;1686525;85;20222;-63
2021/12/14 02:48:44;;;;;;;;;;;;;;;2.09;87.76;101011.32;1686305;85;20647;-63
2021/12/14 02:51:20;;;;;;;;;;;;;;;2.11;87.84;101012.54;1686349;85;20278;-63
2021/12/14 02:53:51;;;;;;;;;;;;;;;2.13;87.93;101020.89;1686397;85;20163;-62
2021/12/14 02:56:21;;;;;;;;;;;;;;;2.14;87.90;101014.49;1686428;85;20158;-64
2021/12/14 02:58:50;;;;;;;;;;;;;;;2.14;87.87;101016.34;1663333;85;20202;-63
2021/12/14 03:01:19;;;;;;;;;;;;;;;2.12;87.91;101023.22;1681517;85;20222;-62
2021/12/14 03:03:48;;;;;;;;;;;;;;;2.12;87.67;101028.62;1662162;85;20222;-62
2021/12/14 03:06:21;;;;;;;;;;;;;;;2.12;87.71;101019.17;1681890;85;20294;-62
2021/12/14 03:08:57;;;;;;;;;;;;;;;2.13;87.65;101020.89;1681536;85;20155;-62
2021/12/14 03:11:18;;;;;;;;;;;;;;;2.14;87.65;101021.74;1680785;85;20306;-62
2021/12/14 03:13:48;;;;;;;;;;;;;;;2.13;87.57;101020.89;1681555;85;20163;-62
2021/12/14 03:16:25;;;;;;;;;;;;;;;2.11;87.52;101017.95;1681512;85;20497;-62
2021/12/14 03:18:55;;;;;;;;;;;;;;;2.11;87.55;101019.30;1681555;85;20473;-63
2021/12/14 03:21:26;;;;;;;;;;;;;;;2.11;87.59;101025.56;1681516;85;20282;-62
2021/12/14 03:23:58;;;;;;;;;;;;;;;2.10;87.47;101022.98;1681739;85;20219;-60
2021/12/14 03:26:29;;;;;;;;;;;;;;;2.10;87.39;101027.05;1662024;85;20155;-62
2021/12/14 03:29:00;;;;;;;;;;;;;;;2.11;87.52;101026.06;1681663;85;20218;-61
2021/12/14 03:31:31;;;;;;;;;;;;;;;2.11;87.56;101027.41;1681573;85;20226;-60
2021/12/14 03:34:24;;;;;;;;;;;;;;;2.14;87.59;101027.15;1661889;85;20159;-63
2021/12/14 03:37:01;;;;;;;;;;;;;;;2.12;87.36;101025.93;1680037;85;20523;-62
2021/12/14 03:39:42;;;;;;;;;;;;;;;2.05;87.36;101026.08;1681458;85;20218;-62
2021/12/14 03:42:17;;;;;;;;;;;;;;;2.05;87.35;101020.67;1681515;85;20222;-62
2021/12/14 03:44:48;;;;;;;;;;;;;;;2.03;87.14;101029.40;1681549;85;20223;-63
2021/12/14 03:47:21;;;;;;;;;;;;;;;2.04;87.14;101024.85;1681561;85;20219;-62
2021/12/14 03:49:52;;;;;;;;;;;;;;;2.02;87.10;101022.77;1681503;85;20358;-62
2021/12/14 03:52:30;;;;;;;;;;;;;;;2.01;87.11;101027.31;1681515;85;20191;-63
2021/12/14 03:55:02;;;;;;;;;;;;;;;2.01;87.02;101027.31;1681793;85;20167;-65
2021/12/14 03:57:30;;;;;;;;;;;;;;;2.01;87.05;101030.02;1681518;85;20270;-63
2021/12/14 04:00:00;;;;;;;;;;;;;;;2.00;86.95;101033.70;1684994;85;20247;-63
2021/12/14 04:02:29;;;;;;;;;;;;;;;1.96;86.85;101036.30;1686418;85;20171;-63
2021/12/14 04:05:06;;;;;;;;;;;;;;;1.93;86.84;101032.47;1686516;85;20221;-63
2021/12/14 04:07:34;;;;;;;;;;;;;;;1.94;86.93;101036.89;1686599;85;20154;-64
2021/12/14 04:10:09;;;;;;;;;;;;;;;1.96;86.98;101039.00;1685646;85;20534;-63
2021/12/14 04:12:38;;;;;;;;;;;;;;;1.95;87.02;101045.39;1686334;85;20213;-62
2021/12/14 04:15:07;;;;;;;;;;;;;;;1.94;87.01;101046.34;1686636;85;20218;-61
2021/12/14 04:17:38;;;;;;;;;;;;;;;1.94;86.97;101046.84;1686370;85;20190;-63
2021/12/14 04:20:19;;;;;;;;;;;;;;;1.95;87.06;101049.91;1686378;85;20177;-64
2021/12/14 04:22:49;;;;;;;;;;;;;;;1.96;87.07;101041.70;1686076;85;20225;-63
2021/12/14 04:25:22;;;;;;;;;;;;;;;1.99;87.07;101044.64;1686429;85;20194;-63
2021/12/14 04:27:51;;;;;;;;;;;;;;;2.00;86.96;101054.47;1686475;85;20155;-63
2021/12/14 04:30:21;;;;;;;;;;;;;;;1.95;86.87;101050.80;1686578;85;20163;-62
2021/12/14 04:32:51;;;;;;;;;;;;;;;1.97;87.07;101054.23;1686391;85;20162;-61
2021/12/14 04:35:19;;;;;;;;;;;;;;;1.94;86.96;101054.45;1686417;85;20202;-62
2021/12/14 04:37:56;;;;;;;;;;;;;;;1.93;87.02;101059.98;1686416;85;20183;-66
2021/12/14 04:51:59;;;;;;;;;;;;;;;1.87;87.10;101055.94;1686410;85;20251;-62
2021/12/14 04:54:40;;;;;;;;;;;;;;;1.87;87.19;101064.91;1686424;85;20183;-62
2021/12/14 04:57:30;;;;;;;;;;;;;;;1.90;87.32;101061.09;1686422;85;20166;-62
2021/12/14 05:00:21;;;;;;;;;;;;;;;1.91;87.30;101059.61;1674921;85;20151;-64
2021/12/14 05:02:51;;;;;;;;;;;;;;;1.91;87.32;101064.16;1682856;85;20158;-64
2021/12/14 05:05:24;;;;;;;;;;;;;;;1.94;87.37;101072.51;1686717;85;20493;-63
2021/12/14 05:10:30;;;;;;;;;;;;;;;1.97;87.35;101081.25;1646105;85;20533;-64
2021/12/14 05:13:00;;;;;;;;;;;;;;;1.98;87.22;101076.70;1686301;85;20476;-64
2021/12/14 05:15:30;;;;;;;;;;;;;;;1.97;87.17;101078.55;1686403;85;20210;-64
2021/12/14 05:17:59;;;;;;;;;;;;;;;1.96;87.13;101078.68;1686343;85;20174;-64
2021/12/14 05:20:31;;;;;;;;;;;;;;;1.93;87.16;101081.11;1686554;85;20238;-63
2021/12/14 05:23:01;;;;;;;;;;;;;;;1.94;87.18;101094.98;1686431;85;20239;-65
2021/12/14 05:25:30;;;;;;;;;;;;;;;1.97;87.09;101092.55;1686683;85;20198;-64
2021/12/14 05:28:09;;;;;;;;;;;;;;;1.97;87.11;101094.77;1685958;85;20181;-63
2021/12/14 05:30:40;;;;;;;;;;;;;;;1.99;87.10;101094.15;1686445;85;20171;-65
2021/12/14 05:33:14;;;;;;;;;;;;;;;1.98;87.05;101095.14;1686069;85;20163;-64
2021/12/14 05:35:45;;;;;;;;;;;;;;;1.97;87.07;101098.82;1686446;85;20171;-62
2021/12/14 05:38:21;;;;;;;;;;;;;;;1.98;87.19;101101.89;1686397;85;20218;-64
2021/12/14 05:43:27;;;;;;;;;;;;;;;1.95;87.16;101095.84;1686581;85;20185;-63
2021/12/14 05:46:03;;;;;;;;;;;;;;;1.99;87.27;101098.20;1685922;85;20550;-64
2021/12/14 05:48:35;;;;;;;;;;;;;;;1.98;87.29;101101.89;1685999;85;20610;-64
2021/12/14 05:51:07;;;;;;;;;;;;;;;1.96;87.41;101101.66;1686437;85;20194;-65
2021/12/14 05:53:44;;;;;;;;;;;;;;;1.94;87.58;101099.04;1686618;85;20507;-64
2021/12/14 05:56:15;;;;;;;;;;;;;;;1.98;87.65;101106.44;1686370;85;20204;-64
2021/12/14 05:58:43;;;;;;;;;;;;;;;1.93;87.60;101104.57;1686395;85;20221;-70
2021/12/14 06:01:14;;;;;;;;;;;;;;;1.92;87.69;101107.77;1681732;85;20234;-66
2021/12/14 06:03:47;;;;;;;;;;;;;;;1.94;87.77;101104.45;1681427;85;20210;-65
2021/12/14 06:06:18;;;;;;;;;;;;;;;1.97;87.76;101109.63;1681592;85;20246;-64
2021/12/14 06:08:48;;;;;;;;;;;;;;;1.95;87.74;101101.25;1681392;85;20235;-70
2021/12/14 06:11:21;;;;;;;;;;;;;;;1.96;87.87;101109.27;1680702;85;20155;-63
2021/12/14 06:13:51;;;;;;;;;;;;;;;1.98;87.98;101111.35;1661685;85;20190;-64
2021/12/14 06:16:28;;;;;;;;;;;;;;;1.97;87.96;101108.28;1681707;85;20222;-64
2021/12/14 06:19:24;;;;;;;;;;;;;;;1.96;87.96;101099.80;1681361;85;20163;-66
2021/12/14 06:21:56;;;;;;;;;;;;;;;1.92;87.90;101110.47;1681599;85;20210;-65
2021/12/14 06:24:25;;;;;;;;;;;;;;;1.89;87.83;101106.17;1681423;85;20465;-64
2021/12/14 06:26:57;;;;;;;;;;;;;;;1.89;87.91;101108.88;1681379;85;20190;-65
2021/12/14 06:29:29;;;;;;;;;;;;;;;1.90;87.93;101108.37;1681369;85;20194;-65
2021/12/14 06:31:58;;;;;;;;;;;;;;;1.89;88.08;101111.58;1681575;85;20614;-64
2021/12/14 06:34:29;;;;;;;;;;;;;;;1.89;88.18;101118.82;1661246;85;20214;-68
2021/12/14 06:37:27;;;;;;;;;;;;;;;1.89;88.23;101120.17;1681576;85;20162;-65
2021/12/14 06:40:04;;;;;;;;;;;;;;;1.91;88.31;101121.77;1680661;85;20526;-63
2021/12/14 06:42:38;;;;;;;;;;;;;;;1.93;88.28;101118.94;1681764;85;20540;-65
2021/12/14 06:45:16;;;;;;;;;;;;;;;1.97;88.33;101126.34;1681577;85;20211;-63
2021/12/14 06:47:44;;;;;;;;;;;;;;;1.97;88.30;101120.44;1681611;85;20190;-64
2021/12/14 06:50:20;;;;;;;;;;;;;;;1.98;88.23;101121.30;1681402;85;20155;-64
2021/12/14 06:53:00;;;;;;;;;;;;;;;1.94;88.00;101123.36;1681116;85;20511;-66
2021/12/14 06:55:35;;;;;;;;;;;;;;;1.87;87.62;101116.73;1676253;85;20222;-71
2021/12/14 06:58:27;;;;;;;;;;;;;;;1.84;87.65;101121.04;1603545;89;20249;-64
2021/12/14 07:01:10;;;;;;;;;;;;;;;1.86;87.84;101122.63;1596364;88;20693;-64
2021/12/14 07:03:53;;;;;;;;;;;;;;;1.88;87.97;101124.72;1626316;87;20257;-64
2021/12/14 07:06:24;;;;;;;;;;;;;;;1.96;88.22;101124.13;1656823;87;20540;-63
2021/12/14 07:08:53;;;;;;;;;;;;;;;2.01;88.29;101123.27;1656801;87;20213;-64
2021/12/14 07:11:23;;;;;;;;;;;;;;;2.02;88.24;101129.03;1656814;87;20245;-63
2021/12/14 07:13:52;;;;;;;;;;;;;;;2.01;88.25;101127.31;1656781;87;20214;-64
2021/12/14 07:16:24;;;;;;;;;;;;;;;2.02;88.26;101126.33;1656738;87;20197;-64
2021/12/14 07:18:55;;;;;;;;;;;;;;;2.02;88.23;101133.09;1656722;87;20218;-63
2021/12/14 07:21:36;;;;;;;;;;;;;;;2.02;88.25;101133.09;1656991;87;20233;-65
2021/12/14 07:24:25;;;;;;;;;;;;;;;2.02;88.27;101137.14;1652553;87;20556;-64
2021/12/14 07:27:21;;;;;;;;;;;;;;;2.06;88.34;101131.00;1652377;87;20220;-65
2021/12/14 07:29:49;;;;;;;;;;;;;;;2.08;88.44;101131.73;1656855;87;20198;-65
2021/12/14 07:32:49;;;;;;;;;;;;;;;2.05;88.28;101136.03;1657046;87;20301;-65
2021/12/14 07:35:31;;;;;;;;;;;;;;;2.03;88.29;101124.48;1656988;87;20582;-66
2021/12/14 07:38:06;;;;;;;;;;;;;;;2.05;88.32;101126.58;1656780;87;20254;-64
2021/12/14 07:40:38;;;;;;;;;;;;;;;2.06;88.24;101122.88;1640877;87;20241;-64
2021/12/14 07:43:18;;;;;;;;;;;;;;;2.04;88.13;101128.41;1656784;87;20305;-65
2021/12/14 07:45:51;;;;;;;;;;;;;;;2.01;88.22;101127.80;1657124;87;20205;-64
2021/12/14 07:48:19;;;;;;;;;;;;;;;2.00;88.35;101128.30;1656694;87;20197;-64
2021/12/14 07:50:53;;;;;;;;;;;;;;;2.00;88.47;101132.84;1656571;87;20197;-64
2021/12/14 07:53:44;;;;;;;;;;;;;;;2.02;88.44;101126.83;1656986;87;20568;-64
2021/12/14 07:56:31;;;;;;;;;;;;;;;2.00;88.27;101140.95;1656535;87;20198;-63
2021/12/14 07:59:00;;;;;;;;;;;;;;;1.99;88.27;101140.09;1656886;87;20314;-65
2021/12/14 08:01:28;;;;;;;;;;;;;;;1.98;88.35;101145.13;1679681;85;20214;-63
2021/12/14 08:04:02;;;;;;;;;;;;;;;1.99;88.40;101142.80;1686351;85;20506;-63
2021/12/14 08:06:50;;;;;;;;;;;;;;;1.98;88.40;101137.02;1686423;85;20210;-64
2021/12/14 08:09:21;;;;;;;;;;;;;;;1.93;88.31;101135.64;1686694;85;20150;-64
2021/12/14 08:11:49;;;;;;;;;;;;;;;1.90;88.33;101136.75;1684461;85;20194;-64
2021/12/14 08:14:21;;;;;;;;;;;;;;;1.88;88.35;101138.23;1686421;85;20183;-64
2021/12/14 08:16:53;;;;;;;;;;;;;;;1.85;88.34;101133.56;1686486;85;20166;-65
2021/12/14 08:19:31;;;;;;;;;;;;;;;1.82;88.44;101128.41;1686499;85;20190;-65
2021/12/14 08:22:02;;;;;;;;;;;;;;;1.86;88.64;101132.09;1686356;85;20162;-64
2021/12/14 08:24:31;;;;;;;;;;;;;;;1.89;88.60;101126.92;1685713;85;20198;-64
2021/12/14 08:27:02;;;;;;;;;;;;;;;1.96;88.83;101126.83;1686409;85;20174;-64
2021/12/14 08:29:33;;;;;;;;;;;;;;;1.99;88.71;101127.08;1686757;85;20182;-64
2021/12/14 08:32:13;;;;;;;;;;;;;;;1.99;88.73;101122.52;1686269;85;20162;-65
2021/12/14 08:34:44;;;;;;;;;;;;;;;2.03;88.78;101122.64;1686293;85;20163;-65
2021/12/14 08:37:17;;;;;;;;;;;;;;;2.04;88.70;101132.47;1683674;85;20222;-64
2021/12/14 08:39:50;;;;;;;;;;;;;;;2.08;88.72;101131.73;1686397;85;20206;-65
2021/12/14 08:42:34;;;;;;;;;;;;;;;2.08;88.58;101128.53;1605819;89;20233;-64
2021/12/14 08:45:00;;;;;;;;;;;;;;;2.10;88.45;101129.76;1606062;89;20220;-64
2021/12/14 08:47:40;;;;;;;;;;;;;;;2.13;88.48;101135.77;1606121;89;20205;-64
2021/12/14 08:50:11;;;;;;;;;;;;;;;2.13;88.45;101130.86;1606180;89;20207;-67
2021/12/14 08:52:41;;;;;;;;;;;;;;;2.11;88.36;101129.63;1606205;89;20273;-63
2021/12/14 08:55:13;;;;;;;;;;;;;;;2.10;88.38;101129.27;1585929;88;20480;-64
2021/12/14 08:57:42;;;;;;;;;;;;;;;2.11;88.42;101135.53;1586388;90;20163;-65
2021/12/14 09:00:20;;;;;;;;;;;;;;;2.16;88.74;101127.41;1619252;86;20163;-65
2021/12/14 09:02:52;;;;;;;;;;;;;;;2.18;88.68;101128.14;1677328;86;20175;-66
2021/12/14 09:05:26;;;;;;;;;;;;;;;2.22;88.65;101124.20;1677328;86;20194;-64
2021/12/14 09:07:55;;;;;;;;;;;;;;;2.27;88.55;101121.61;1677382;86;20252;-64
2021/12/14 09:10:25;;;;;;;;;;;;;;;2.21;88.28;101117.57;1677549;86;20175;-64
2021/12/14 09:12:57;;;;;;;;;;;;;;;2.19;88.35;101120.89;1677464;86;20274;-65
2021/12/14 09:15:28;;;;;;;;;;;;;;;2.21;88.43;101123.84;1677277;86;20179;-64
2021/12/14 09:17:57;;;;;;;;;;;;;;;2.25;88.36;101122.23;1677385;86;20507;-64
2021/12/14 09:20:41;;;;;;;;;;;;;;;2.32;88.47;101119.39;1677134;86;20213;-66
2021/12/14 09:23:12;;;;;;;;;;;;;;;2.34;88.35;101122.83;1677268;86;20278;-65
2021/12/14 09:25:40;;;;;;;;;;;;;;;2.37;88.30;101119.86;1677294;86;20225;-64
2021/12/14 09:28:08;;;;;;;;;;;;;;;2.38;88.24;101129.69;1677404;86;20461;-64
2021/12/14 09:30:44;;;;;;;;;;;;;;;2.36;87.84;101121.71;1677197;86;20497;-64
2021/12/14 09:33:12;;;;;;;;;;;;;;;2.32;87.85;101120.73;1677671;86;20453;-63
2021/12/14 09:35:40;;;;;;;;;;;;;;;2.30;87.84;101114.59;1677395;86;20174;-63
2021/12/14 09:38:10;;;;;;;;;;;;;;;2.31;87.85;101114.97;1677286;86;20538;-63
2021/12/14 09:40:42;;;;;;;;;;;;;;;2.32;87.68;101114.84;1677222;86;20167;-64
2021/12/14 09:43:10;;;;;;;;;;;;;;;2.29;87.64;101114.23;1677222;85;20166;-64
2021/12/14 09:45:44;;;;;;;;;;;;;;;2.28;87.69;101116.08;1677245;86;20252;-64
2021/12/14 09:48:15;;;;;;;;;;;;;;;2.31;88.03;101106.36;1677207;86;20159;-64
2021/12/14 09:50:45;;;;;;;;;;;;;;;2.37;88.00;101111.75;1677340;85;20179;-64
2021/12/14 09:53:16;;;;;;;;;;;;;;;2.41;87.86;101106.45;1677199;85;20207;-63
2021/12/14 09:55:44;;;;;;;;;;;;;;;2.42;87.60;101103.62;1677303;86;20203;-63
2021/12/14 09:58:17;;;;;;;;;;;;;;;2.42;87.55;101100.05;1572390;91;20203;-64
2021/12/14 10:00:52;;;;;;;;;;;;;;;2.44;87.58;101099.44;1572336;91;20312;-62
2021/12/14 10:03:21;;;;;;;;;;;;;;;2.44;87.35;101098.08;1572464;91;20176;-62
2021/12/14 10:05:53;;;;;;;;;;;;;;;2.41;87.22;101101.05;1572490;91;20221;-62
2021/12/14 10:08:26;;;;;;;;;;;;;;;2.39;87.16;101094.91;1483321;97;20277;-62
2021/12/14 10:11:03;;;;;;;;;;;;;;;2.40;87.17;101092.07;1483537;97;20245;-61
2021/12/14 10:13:28;;;;;;;;;;;;;;;2.40;87.01;101088.02;1483347;97;20244;-60
2021/12/14 10:15:57;;;;;;;;;;;;;;;2.42;86.92;101089.23;1512203;91;20538;-62
2021/12/14 10:18:31;;;;;;;;;;;;;;;2.39;86.54;101093.55;1572572;91;20544;-61
2021/12/14 10:21:04;;;;;;;;;;;;;;;2.41;86.51;101084.33;1572779;91;20168;-62
2021/12/14 10:23:34;;;;;;;;;;;;;;;2.38;86.46;101083.72;1572771;91;20233;-62
2021/12/14 10:26:03;;;;;;;;;;;;;;;2.36;86.50;101085.20;1604921;86;20517;-63
2021/12/14 10:28:33;;;;;;;;;;;;;;;2.33;86.42;101080.05;1677309;86;20187;-62
2021/12/14 10:31:07;;;;;;;;;;;;;;;2.32;86.47;101085.09;1677310;86;20458;-64
2021/12/14 10:33:35;;;;;;;;;;;;;;;2.36;86.45;101081.64;1677336;86;20469;-63
2021/12/14 10:36:17;;;;;;;;;;;;;;;2.35;86.38;101088.03;1677603;86;20230;-62
2021/12/14 10:39:00;;;;;;;;;;;;;;;2.35;86.22;101083.98;1676607;86;20254;-62
2021/12/14 10:44:03;;;;;;;;;;;;;;;2.35;86.30;101082.62;1677287;86;20564;-63
2021/12/14 10:46:39;;;;;;;;;;;;;;;2.38;86.42;101081.02;1677215;86;20203;-62
2021/12/14 10:49:07;;;;;;;;;;;;;;;2.41;86.35;101079.41;1677287;85;20590;-62
2021/12/14 10:51:37;;;;;;;;;;;;;;;2.44;86.24;101079.16;1677360;85;20531;-63
2021/12/14 10:54:07;;;;;;;;;;;;;;;2.45;86.31;101076.31;1677107;86;20151;-63
2021/12/14 10:56:41;;;;;;;;;;;;;;;2.52;86.57;101075.30;1677624;86;20207;-63
2021/12/14 10:59:12;;;;;;;;;;;;;;;2.58;86.53;101075.28;1676882;85;20150;-63
2021/12/14 11:01:48;;;;;;;;;;;;;;;2.63;86.53;101079.84;1674538;86;20163;-61
2021/12/14 11:04:12;;;;;;;;;;;;;;;2.65;86.35;101070.61;1671514;86;20267;-63
2021/12/14 11:06:44;;;;;;;;;;;;;;;2.70;86.56;101068.86;1671883;85;20174;-62
2021/12/14 11:09:42;;;;;;;;;;;;;;;2.73;86.34;101068.11;1672008;85;20167;-62
2021/12/14 11:12:22;;;;;;;;;;;;;;;2.74;86.30;101063.55;1671875;85;20226;-61
2021/12/14 11:14:53;;;;;;;;;;;;;;;2.75;86.19;101070.19;1671960;86;20219;-63
2021/12/14 11:20:12;;;;;;;;;;;;;;;2.67;84.98;101061.86;1672081;86;20458;-62
2021/12/14 11:22:44;;;;;;;;;;;;;;;2.64;85.04;101063.48;1672220;86;20167;-63
2021/12/14 11:25:19;;;;;;;;;;;;;;;2.62;85.14;101065.45;1668916;86;20591;-63
2021/12/14 11:27:50;;;;;;;;;;;;;;;2.59;85.27;101066.18;1671891;85;20183;-65
2021/12/14 11:30:26;;;;;;;;;;;;;;;2.55;85.47;101070.50;1680653;83;20206;-63
2021/12/14 11:33:12;;;;;;;;;;;;;;;2.51;85.69;101074.45;1725133;83;20509;-61
2021/12/14 11:35:47;;;;;;;;;;;;;;;2.48;86.43;101071.14;1682212;83;20248;-63
2021/12/14 11:38:39;;;;;;;;;;;;;;;2.49;86.51;101074.21;1700918;83;20502;-61
2021/12/14 11:41:44;;;;;;;;;;;;;;;2.51;86.58;101077.65;1667625;83;20561;-63
2021/12/14 11:44:17;;;;;;;;;;;;;;;2.47;86.51;101082.95;1692465;83;20539;-61
2021/12/14 11:46:52;;;;;;;;;;;;;;;2.41;86.81;101081.62;1728072;83;20474;-62
2021/12/14 11:49:21;;;;;;;;;;;;;;;2.40;87.03;101081.75;1728441;83;20147;-62
2021/12/14 11:51:50;;;;;;;;;;;;;;;2.40;87.08;101079.05;1684702;83;20265;-63
2021/12/14 11:54:20;;;;;;;;;;;;;;;2.39;87.17;101086.30;1686819;85;20186;-62
2021/12/14 11:56:49;;;;;;;;;;;;;;;2.41;87.26;101080.77;1686510;85;20234;-64
2021/12/14 11:59:19;;;;;;;;;;;;;;;2.41;87.30;101080.77;1705932;83;20525;-62
2021/12/14 12:01:53;;;;;;;;;;;;;;;2.42;87.40;101077.06;1653657;87;20521;-61
2021/12/14 12:04:31;;;;;;;;;;;;;;;2.40;87.40;101086.66;1655016;84;20225;-63
2021/12/14 12:09:44;;;;;;;;;;;;;;;2.40;87.48;101083.09;1718472;83;20184;-62
2021/12/14 12:12:27;;;;;;;;;;;;;;;2.40;87.51;101081.25;1728341;83;20194;-62
2021/12/14 12:15:09;;;;;;;;;;;;;;;2.41;87.51;101075.35;1728521;83;20234;-62
2021/12/14 12:17:44;;;;;;;;;;;;;;;2.39;87.46;101082.73;1728361;83;20215;-62
2021/12/14 12:20:24;;;;;;;;;;;;;;;2.37;87.47;101077.95;1717976;83;20222;-62
2021/12/14 12:23:00;;;;;;;;;;;;;;;2.38;87.52;101079.66;1686472;85;20209;-63
2021/12/14 12:25:40;;;;;;;;;;;;;;;2.37;87.55;101084.70;1684031;83;20187;-62
2021/12/14 12:28:14;;;;;;;;;;;;;;;2.38;87.64;101078.31;1706713;84;20196;-61
2021/12/14 12:31:06;;;;;;;;;;;;;;;2.38;87.58;101074.26;1692295;83;20187;-62
2021/12/14 12:33:38;;;;;;;;;;;;;;;2.41;87.86;101079.41;1667344;86;20199;-62
2021/12/14 12:36:29;;;;;;;;;;;;;;;2.53;88.42;101075.67;1667312;86;20215;-63
2021/12/14 12:39:11;;;;;;;;;;;;;;;2.57;88.15;101078.48;1667653;86;20164;-63
2021/12/14 12:41:48;;;;;;;;;;;;;;;2.53;87.84;101077.02;1723077;83;20175;-62
2021/12/14 12:44:39;;;;;;;;;;;;;;;2.49;87.67;101080.97;1728450;83;20159;-61
2021/12/14 12:47:09;;;;;;;;;;;;;;;2.50;87.98;101079.98;1728591;83;20276;-62
2021/12/14 12:49:48;;;;;;;;;;;;;;;2.57;88.07;101076.27;1728481;83;20184;-63
2021/12/14 12:52:22;;;;;;;;;;;;;;;2.60;87.72;101080.95;1728404;83;20159;-62
2021/12/14 12:55:06;;;;;;;;;;;;;;;2.58;87.56;101078.84;1728708;83;20217;-64
2021/12/14 12:57:42;;;;;;;;;;;;;;;2.57;87.33;101079.83;1728768;83;20203;-63
2021/12/14 13:00:21;;;;;;;;;;;;;;;2.53;87.17;101081.08;1728599;83;20156;-63
2021/12/14 13:02:53;;;;;;;;;;;;;;;2.50;87.15;101086.75;1723001;83;20466;-64
2021/12/14 13:05:26;;;;;;;;;;;;;;;2.47;87.07;101075.69;1713715;83;20199;-63
2021/12/14 13:08:01;;;;;;;;;;;;;;;2.46;87.13;101083.44;1720989;83;20195;-62
2021/12/14 13:10:45;;;;;;;;;;;;;;;2.46;87.07;101080.73;1720286;83;20207;-66
2021/12/14 13:13:36;;;;;;;;;;;;;;;2.44;87.02;101083.20;1716384;83;20167;-62
2021/12/14 13:16:07;;;;;;;;;;;;;;;2.41;87.08;101084.81;1673045;85;20206;-63
2021/12/14 13:18:39;;;;;;;;;;;;;;;2.39;87.04;101089.00;1649169;84;20301;-63
2021/12/14 13:21:16;;;;;;;;;;;;;;;2.37;87.08;101090.12;1695686;84;20239;-62
2021/12/14 13:24:00;;;;;;;;;;;;;;;2.39;87.13;101090.36;1698729;84;20167;-65
2021/12/14 13:26:47;;;;;;;;;;;;;;;2.42;86.95;101086.04;1667661;83;20191;-62
2021/12/14 13:29:46;;;;;;;;;;;;;;;2.41;86.97;101081.62;1678495;85;20217;-63
2021/12/14 13:32:31;;;;;;;;;;;;;;;2.45;86.95;101086.27;1689505;82;20181;-64
2021/12/14 13:35:11;;;;;;;;;;;;;;;2.47;86.87;101085.66;1706343;84;20463;-63
2021/12/14 13:37:42;;;;;;;;;;;;;;;2.49;86.88;101088.59;1673836;83;20561;-63
2021/12/14 13:40:17;;;;;;;;;;;;;;;2.50;86.68;101093.52;1654579;87;20338;-62
2021/12/14 13:42:54;;;;;;;;;;;;;;;2.51;86.70;101089.81;1658259;84;20189;-65
2021/12/14 13:45:25;;;;;;;;;;;;;;;2.54;86.58;101086.86;1683380;85;20229;-63
2021/12/14 13:47:54;;;;;;;;;;;;;;;2.57;86.58;101088.45;1712671;84;20151;-63
2021/12/14 13:50:30;;;;;;;;;;;;;;;2.57;86.46;101086.59;1712593;83;20468;-64
2021/12/14 13:53:00;;;;;;;;;;;;;;;2.57;86.31;101100.12;1715816;83;20561;-62
2021/12/14 13:55:38;;;;;;;;;;;;;;;2.61;86.42;101096.20;1717870;84;20222;-63
2021/12/14 14:01:01;;;;;;;;;;;;;;;2.60;85.88;101091.78;1705049;84;20187;-67